createdAt,value
2022-09-26T00:00:20.938Z,9.28
2022-09-26T00:02:48.632Z,9.28
2022-09-26T00:05:16.523Z,9.18
2022-09-26T00:07:44.065Z,9.13
2022-09-26T00:10:11.582Z,9.16
2022-09-26T00:12:40.556Z,9.27
2022-09-26T00:15:09.211Z,9.24
2022-09-26T00:17:36.836Z,9.19
2022-09-26T00:20:05.283Z,9.20
2022-09-26T00:22:32.878Z,9.19
2022-09-26T00:25:00.445Z,9.05
2022-09-26T00:27:28.112Z,9.08
2022-09-26T00:29:57.027Z,9.08
2022-09-26T00:32:24.661Z,9.06
2022-09-26T00:34:52.190Z,9.09
2022-09-26T00:37:19.895Z,9.01
2022-09-26T00:39:47.467Z,8.97
2022-09-26T00:42:15.893Z,9.08
2022-09-26T00:44:46.938Z,9.09
2022-09-26T00:47:41.829Z,8.96
2022-09-26T00:50:14.854Z,8.95
2022-09-26T00:52:44.795Z,8.80
2022-09-26T00:55:14.961Z,8.85
2022-09-26T00:57:46.454Z,8.77
2022-09-26T01:00:15.840Z,8.74
2022-09-26T01:02:46.875Z,8.83
2022-09-26T01:05:16.970Z,8.81
2022-09-26T01:07:45.085Z,8.79
2022-09-26T01:10:13.072Z,8.74
2022-09-26T01:12:40.670Z,8.66
2022-09-26T01:15:09.400Z,8.72
2022-09-26T01:17:37.951Z,8.71
2022-09-26T01:20:18.738Z,8.66
2022-09-26T01:23:11.895Z,8.62
2022-09-26T01:26:12.221Z,8.61
2022-09-26T01:28:53.480Z,8.48
2022-09-26T01:31:25.300Z,8.50
2022-09-26T01:34:03.571Z,8.29
2022-09-26T01:36:46.535Z,8.43
2022-09-26T01:39:22.965Z,8.41
2022-09-26T01:41:59.136Z,8.45
2022-09-26T01:44:32.163Z,8.42
2022-09-26T01:47:04.371Z,8.39
2022-09-26T01:49:37.498Z,8.44
2022-09-26T01:52:07.285Z,8.33
2022-09-26T01:54:38.319Z,8.26
2022-09-26T01:57:08.720Z,8.33
2022-09-26T01:59:39.896Z,8.29
2022-09-26T02:02:15.860Z,8.26
2022-09-26T02:04:44.013Z,8.28
2022-09-26T02:07:13.849Z,8.24
2022-09-26T02:09:44.667Z,8.18
2022-09-26T02:12:15.601Z,8.33
2022-09-26T02:14:44.531Z,8.44
2022-09-26T02:17:16.163Z,8.41
2022-09-26T02:19:49.394Z,8.40
2022-09-26T02:22:17.428Z,8.36
2022-09-26T02:24:45.782Z,8.44
2022-09-26T02:27:13.962Z,8.29
2022-09-26T02:29:44.506Z,8.33
2022-09-26T02:32:16.071Z,8.34
2022-09-26T02:34:46.106Z,8.16
2022-09-26T02:37:14.782Z,8.26
2022-09-26T02:39:43.531Z,8.25
2022-09-26T02:42:18.254Z,8.25
2022-09-26T02:44:56.449Z,8.23
2022-09-26T02:48:02.914Z,8.21
2022-09-26T02:50:41.583Z,8.14
2022-09-26T02:53:20.120Z,8.06
2022-09-26T02:55:52.727Z,8.08
2022-09-26T02:58:23.115Z,7.99
2022-09-26T03:00:58.784Z,7.96
2022-09-26T03:03:31.838Z,7.97
2022-09-26T03:06:02.036Z,7.93
2022-09-26T03:08:30.832Z,7.86
2022-09-26T03:11:03.402Z,7.82
2022-09-26T03:13:35.208Z,7.90
2022-09-26T03:16:03.524Z,7.82
2022-09-26T03:18:36.663Z,7.78
2022-09-26T03:21:05.882Z,7.84
2022-09-26T03:23:33.564Z,7.83
2022-09-26T03:26:02.668Z,7.81
2022-09-26T03:28:36.860Z,7.62
2022-09-26T03:31:05.525Z,7.78
2022-09-26T03:33:33.091Z,7.77
2022-09-26T03:36:00.807Z,7.73
2022-09-26T03:38:29.779Z,7.67
2022-09-26T03:40:58.447Z,7.68
2022-09-26T03:43:26.772Z,7.72
2022-09-26T03:45:54.999Z,7.75
2022-09-26T03:48:22.743Z,7.77
2022-09-26T03:50:50.301Z,7.80
2022-09-26T03:53:18.827Z,7.83
2022-09-26T03:55:47.987Z,7.85
2022-09-26T03:58:15.675Z,7.93
2022-09-26T04:00:43.326Z,7.94
2022-09-26T04:03:10.950Z,7.98
2022-09-26T04:05:38.565Z,7.99
2022-09-26T04:08:06.224Z,8.01
2022-09-26T04:10:33.888Z,8.07
2022-09-26T04:13:03.049Z,7.98
2022-09-26T04:15:30.900Z,7.73
2022-09-26T04:17:58.435Z,7.89
2022-09-26T04:20:26.069Z,7.87
2022-09-26T04:22:53.619Z,7.83
2022-09-26T04:25:21.159Z,7.82
2022-09-26T04:27:48.738Z,7.78
2022-09-26T04:30:17.716Z,7.74
2022-09-26T04:32:45.286Z,7.77
2022-09-26T04:35:12.816Z,7.84
2022-09-26T04:37:41.135Z,7.86
2022-09-26T04:40:11.053Z,7.80
2022-09-26T04:42:38.628Z,7.81
2022-09-26T04:45:07.232Z,7.75
2022-09-26T04:47:36.281Z,7.72
2022-09-26T04:50:03.984Z,7.73
2022-09-26T04:52:31.499Z,7.81
2022-09-26T04:54:59.006Z,7.85
2022-09-26T04:57:27.617Z,7.79
2022-09-26T04:59:55.194Z,7.75
2022-09-26T05:02:22.768Z,7.71
2022-09-26T05:04:51.761Z,7.74
2022-09-26T05:07:19.425Z,7.67
2022-09-26T05:09:47.831Z,7.66
2022-09-26T05:12:15.740Z,7.71
2022-09-26T05:14:44.288Z,7.72
2022-09-26T05:17:11.938Z,7.74
2022-09-26T05:19:39.464Z,7.80
2022-09-26T05:22:08.313Z,7.66
2022-09-26T05:24:53.568Z,7.73
2022-09-26T05:27:21.159Z,7.62
2022-09-26T05:29:48.672Z,7.58
2022-09-26T05:32:20.672Z,7.56
2022-09-26T05:34:48.909Z,7.60
2022-09-26T05:37:17.772Z,7.62
2022-09-26T05:40:03.016Z,7.50
2022-09-26T05:42:30.557Z,7.56
2022-09-26T05:45:01.961Z,7.62
2022-09-26T05:47:32.237Z,7.54
2022-09-26T05:49:59.737Z,7.51
2022-09-26T05:52:30.848Z,7.53
2022-09-26T05:54:59.111Z,7.55
2022-09-26T05:57:26.717Z,7.53
2022-09-26T05:59:54.283Z,7.53
2022-09-26T06:02:21.842Z,7.45
2022-09-26T06:04:49.567Z,7.50
2022-09-26T06:07:17.117Z,7.54
2022-09-26T06:09:46.026Z,7.63
2022-09-26T06:12:15.184Z,7.60
2022-09-26T06:14:46.655Z,7.68
2022-09-26T06:17:14.339Z,7.81
2022-09-26T06:19:41.874Z,7.85
2022-09-26T06:22:09.374Z,8.03
2022-09-26T06:24:36.930Z,7.98
2022-09-26T06:27:05.896Z,8.21
2022-09-26T06:29:33.523Z,8.16
2022-09-26T06:32:01.367Z,8.22
2022-09-26T06:34:28.968Z,8.35
2022-09-26T06:36:56.512Z,8.35
2022-09-26T06:39:24.090Z,8.51
2022-09-26T06:41:53.052Z,8.46
2022-09-26T06:44:23.801Z,8.50
2022-09-26T06:46:51.484Z,8.65
2022-09-26T06:49:19.159Z,8.74
2022-09-26T06:51:48.851Z,8.82
2022-09-26T06:54:16.418Z,9.03
2022-09-26T06:56:44.001Z,9.16
2022-09-26T06:59:12.153Z,9.19
2022-09-26T07:01:41.435Z,9.43
2022-09-26T07:04:09.214Z,9.49
2022-09-26T07:06:37.720Z,9.45
2022-09-26T07:09:09.804Z,9.60
2022-09-26T07:12:02.718Z,9.69
2022-09-26T07:14:27.922Z,9.68
2022-09-26T07:16:56.827Z,9.76
2022-09-26T07:19:24.342Z,9.90
2022-09-26T07:21:51.897Z,10.00
2022-09-26T07:24:19.422Z,10.14
2022-09-26T07:26:47.017Z,10.23
2022-09-26T07:29:14.706Z,10.26
2022-09-26T07:31:42.357Z,10.44
2022-09-26T07:34:15.848Z,10.58
2022-09-26T07:36:47.374Z,10.57
2022-09-26T07:39:15.113Z,10.72
2022-09-26T07:41:45.827Z,10.67
2022-09-26T07:47:18.878Z,10.85
2022-09-26T07:50:05.520Z,10.89
2022-09-26T07:52:33.097Z,10.97
2022-09-26T07:55:00.888Z,10.89
2022-09-26T07:57:33.709Z,10.87
2022-09-26T08:00:01.437Z,10.92
2022-09-26T08:02:34.459Z,10.94
2022-09-26T08:05:05.088Z,10.87
2022-09-26T08:07:33.341Z,10.98
2022-09-26T08:10:01.757Z,11.16
2022-09-26T08:12:29.733Z,11.28
2022-09-26T08:14:57.241Z,11.47
2022-09-26T08:17:24.774Z,11.58
2022-09-26T08:19:52.304Z,11.68
2022-09-26T08:22:21.147Z,11.84
2022-09-26T08:24:50.850Z,11.96
2022-09-26T08:27:19.120Z,11.87
2022-09-26T08:29:48.414Z,12.05
2022-09-26T08:32:18.600Z,11.99
2022-09-26T08:34:46.973Z,12.21
2022-09-26T08:37:14.534Z,12.35
2022-09-26T08:39:43.517Z,12.23
2022-09-26T08:42:29.734Z,12.43
2022-09-26T08:45:30.378Z,12.39
2022-09-26T08:48:04.916Z,12.58
2022-09-26T08:50:38.401Z,12.42
2022-09-26T08:53:09.718Z,12.49
2022-09-26T08:55:43.868Z,12.50
2022-09-26T08:58:16.752Z,12.42
2022-09-26T09:00:45.015Z,12.27
2022-09-26T09:03:21.580Z,12.45
2022-09-26T09:05:51.088Z,12.40
2022-09-26T09:08:22.429Z,12.45
2022-09-26T09:10:56.666Z,12.65
2022-09-26T09:13:38.768Z,12.67
2022-09-26T09:16:19.771Z,12.68
2022-09-26T09:18:55.300Z,12.63
2022-09-26T09:21:40.777Z,12.47
2022-09-26T09:24:19.904Z,12.55
2022-09-26T09:30:15.745Z,13.04
2022-09-26T09:32:49.353Z,13.28
2022-09-26T09:35:20.769Z,13.48
2022-09-26T09:37:50.961Z,13.63
2022-09-26T09:40:25.720Z,13.82
2022-09-26T09:42:58.671Z,13.79
2022-09-26T09:45:30.901Z,13.75
2022-09-26T09:47:58.616Z,13.71
2022-09-26T09:50:33.673Z,13.80
2022-09-26T09:53:07.783Z,13.88
2022-09-26T09:55:39.786Z,13.95
2022-09-26T09:58:17.794Z,13.92
2022-09-26T10:00:51.298Z,14.06
2022-09-26T10:03:25.739Z,13.92
2022-09-26T10:05:56.741Z,13.89
2022-09-26T10:08:31.237Z,13.53
2022-09-26T10:11:09.083Z,13.76
2022-09-26T10:13:38.892Z,14.09
2022-09-26T10:16:07.931Z,14.35
2022-09-26T10:18:53.411Z,14.67
2022-09-26T10:21:21.278Z,14.83
2022-09-26T10:23:50.347Z,15.01
2022-09-26T10:26:34.687Z,14.99
2022-09-26T10:29:08.097Z,15.05
2022-09-26T10:31:42.007Z,14.87
2022-09-26T10:34:23.420Z,15.14
2022-09-26T10:36:50.938Z,15.25
2022-09-26T10:39:37.931Z,15.11
2022-09-26T10:42:15.408Z,14.81
2022-09-26T10:44:45.958Z,14.59
2022-09-26T10:47:15.347Z,14.71
2022-09-26T10:49:50.994Z,14.50
2022-09-26T10:52:23.668Z,14.60
2022-09-26T10:54:57.289Z,14.47
2022-09-26T10:57:28.479Z,14.54
2022-09-26T10:59:59.589Z,14.51
2022-09-26T11:02:28.342Z,14.48
2022-09-26T11:05:17.280Z,14.49
2022-09-26T11:07:47.180Z,14.53
2022-09-26T11:10:16.301Z,14.67
2022-09-26T11:12:57.477Z,14.55
2022-09-26T11:15:28.544Z,14.67
2022-09-26T11:17:56.749Z,14.63
2022-09-26T11:20:38.974Z,14.69
2022-09-26T11:23:14.553Z,14.83
2022-09-26T11:28:40.236Z,14.77
2022-09-26T11:31:25.894Z,14.52
2022-09-26T11:37:03.396Z,14.66
2022-09-26T11:39:42.450Z,14.54
2022-09-26T11:42:22.242Z,14.65
2022-09-26T11:44:55.488Z,14.67
2022-09-26T11:47:59.496Z,14.66
2022-09-26T11:50:39.641Z,14.60
2022-09-26T11:53:35.736Z,14.69
2022-09-26T11:56:40.576Z,14.57
2022-09-26T11:59:23.530Z,14.49
2022-09-26T12:01:55.767Z,14.48
2022-09-26T12:04:55.123Z,14.45
2022-09-26T12:07:26.470Z,14.10
2022-09-26T12:10:14.753Z,14.00
2022-09-26T12:12:45.714Z,13.82
2022-09-26T12:15:23.593Z,13.61
2022-09-26T12:17:59.453Z,13.52
2022-09-26T12:20:34.346Z,13.75
2022-09-26T12:23:08.772Z,13.57
2022-09-26T12:25:42.326Z,13.89
2022-09-26T12:28:21.950Z,13.96
2022-09-26T12:30:58.229Z,14.10
2022-09-26T12:33:53.793Z,14.16
2022-09-26T12:36:31.240Z,14.16
2022-09-26T12:39:09.497Z,14.19
2022-09-26T12:41:55.220Z,14.30
2022-09-26T12:44:35.297Z,14.25
2022-09-26T12:47:14.959Z,14.30
2022-09-26T12:50:02.334Z,14.37
2022-09-26T12:52:41.465Z,14.39
2022-09-26T12:55:17.844Z,14.42
2022-09-26T12:57:57.067Z,14.30
2022-09-26T13:00:25.148Z,14.27
2022-09-26T13:03:10.593Z,14.25
2022-09-26T13:05:58.008Z,14.23
2022-09-26T13:08:34.054Z,14.35
2022-09-26T13:11:10.324Z,14.31
2022-09-26T13:14:08.967Z,14.35
2022-09-26T13:16:46.868Z,14.31
2022-09-26T13:19:23.512Z,14.31
2022-09-26T13:21:55.410Z,14.43
2022-09-26T13:24:26.024Z,14.30
2022-09-26T13:27:00.480Z,14.37
2022-09-26T13:29:31.872Z,14.47
2022-09-26T13:32:11.081Z,14.30
2022-09-26T13:34:41.285Z,14.31
2022-09-26T13:37:13.437Z,14.35
2022-09-26T13:39:49.007Z,14.35
2022-09-26T13:42:21.214Z,14.20
2022-09-26T13:44:57.436Z,14.25
2022-09-26T13:47:33.382Z,14.20
2022-09-26T13:50:05.144Z,14.10
2022-09-26T13:52:52.170Z,14.21
2022-09-26T13:55:22.143Z,14.31
2022-09-26T13:57:52.330Z,14.22
2022-09-26T14:00:57.564Z,14.19
2022-09-26T14:03:43.162Z,14.32
2022-09-26T14:06:25.553Z,14.31
2022-09-26T14:09:25.099Z,14.44
2022-09-26T14:12:19.231Z,14.42
2022-09-26T14:14:52.054Z,14.23
2022-09-26T14:18:02.270Z,14.23
2022-09-26T14:20:32.343Z,14.03
2022-09-26T14:23:02.009Z,14.11
2022-09-26T14:25:57.497Z,13.97
2022-09-26T14:28:37.084Z,13.95
2022-09-26T14:31:43.832Z,13.96
2022-09-26T14:34:16.981Z,14.05
2022-09-26T14:36:45.736Z,13.94
2022-09-26T14:39:26.909Z,13.82
2022-09-26T14:41:55.114Z,13.78
2022-09-26T14:44:24.497Z,13.87
2022-09-26T14:46:54.024Z,13.91
2022-09-26T14:49:24.503Z,13.89
2022-09-26T14:51:59.733Z,13.72
2022-09-26T14:54:31.943Z,13.78
2022-09-26T14:57:01.971Z,13.96
2022-09-26T14:59:44.154Z,13.81
2022-09-26T15:02:21.086Z,14.01
2022-09-26T15:05:00.123Z,13.84
2022-09-26T15:07:28.424Z,13.76
2022-09-26T15:09:58.602Z,13.79
2022-09-26T15:12:30.782Z,13.76
2022-09-26T15:15:10.672Z,13.75
2022-09-26T15:17:41.640Z,13.75
2022-09-26T15:20:14.597Z,13.96
2022-09-26T15:22:42.680Z,13.85
2022-09-26T15:25:11.909Z,13.85
2022-09-26T15:27:46.236Z,13.75
2022-09-26T15:30:20.101Z,13.74
2022-09-26T15:32:49.096Z,13.90
2022-09-26T15:35:17.588Z,13.75
2022-09-26T15:37:45.881Z,13.86
2022-09-26T15:40:16.478Z,13.75
2022-09-26T15:42:58.772Z,13.84
2022-09-26T15:45:33.167Z,13.75
2022-09-26T15:48:03.980Z,13.74
2022-09-26T15:50:43.876Z,13.61
2022-09-26T15:53:23.900Z,13.51
2022-09-26T15:55:56.436Z,13.55
2022-09-26T15:58:27.843Z,13.56
2022-09-26T16:01:00.156Z,13.41
2022-09-26T16:03:48.368Z,13.45
2022-09-26T16:06:32.245Z,13.45
2022-09-26T16:09:05.803Z,13.43
2022-09-26T16:11:33.962Z,13.43
2022-09-26T16:14:02.018Z,13.28
2022-09-26T16:16:33.019Z,13.32
2022-09-26T16:19:03.166Z,13.29
2022-09-26T16:21:33.894Z,13.11
2022-09-26T16:24:22.296Z,13.06
2022-09-26T16:26:50.746Z,13.21
2022-09-26T16:29:30.279Z,13.04
2022-09-26T16:31:59.476Z,13.04
2022-09-26T16:34:27.118Z,13.05
2022-09-26T16:36:55.158Z,12.93
2022-09-26T16:39:24.375Z,12.98
2022-09-26T16:42:02.296Z,12.84
2022-09-26T16:44:35.905Z,12.85
2022-09-26T16:47:07.386Z,12.84
2022-09-26T16:49:46.865Z,12.82
2022-09-26T16:52:23.707Z,12.64
2022-09-26T16:54:52.036Z,12.65
2022-09-26T16:57:22.354Z,12.61
2022-09-26T16:59:50.889Z,12.63
2022-09-26T17:02:20.303Z,12.63
2022-09-26T17:04:50.002Z,12.54
2022-09-26T17:07:17.678Z,12.63
2022-09-26T17:09:45.344Z,12.58
2022-09-26T17:12:17.998Z,12.63
2022-09-26T17:14:48.023Z,12.58
2022-09-26T17:17:19.765Z,12.39
2022-09-26T17:19:55.409Z,12.42
2022-09-26T17:22:26.836Z,12.28
2022-09-26T17:24:55.464Z,12.21
2022-09-26T17:27:26.884Z,12.12
2022-09-26T17:29:58.160Z,12.29
2022-09-26T17:32:29.447Z,12.25
2022-09-26T17:34:59.822Z,12.00
2022-09-26T17:37:28.529Z,11.92
2022-09-26T17:39:56.635Z,11.96
2022-09-26T17:42:25.111Z,11.85
2022-09-26T17:44:52.902Z,11.86
2022-09-26T17:47:21.101Z,11.79
2022-09-26T17:49:51.857Z,11.73
2022-09-26T17:52:27.043Z,11.61
2022-09-26T17:54:58.392Z,11.61
2022-09-26T17:57:29.816Z,11.60
2022-09-26T17:59:57.742Z,11.56
2022-09-26T18:02:31.242Z,11.49
2022-09-26T18:05:01.271Z,11.34
2022-09-26T18:07:35.434Z,11.39
2022-09-26T18:10:07.079Z,11.44
2022-09-26T18:12:35.580Z,11.40
2022-09-26T18:15:04.729Z,11.32
2022-09-26T18:17:32.481Z,11.23
2022-09-26T18:20:00.165Z,11.13
2022-09-26T18:22:31.959Z,11.21
2022-09-26T18:25:04.638Z,11.05
2022-09-26T18:27:32.591Z,11.18
2022-09-26T18:30:00.251Z,11.30
2022-09-26T18:32:31.103Z,11.20
2022-09-26T18:34:58.979Z,11.20
2022-09-26T18:37:27.350Z,11.19
2022-09-26T18:40:00.143Z,11.08
2022-09-26T18:42:31.705Z,11.05
2022-09-26T18:45:03.461Z,11.13
2022-09-26T18:47:32.038Z,11.18
2022-09-26T18:49:59.754Z,11.12
2022-09-26T18:52:27.361Z,11.06
2022-09-26T18:55:10.231Z,11.11
2022-09-26T18:57:55.270Z,10.98
2022-09-26T19:00:22.931Z,11.05
2022-09-26T19:02:51.155Z,11.00
2022-09-26T19:05:19.366Z,10.89
2022-09-26T19:07:47.030Z,10.95
2022-09-26T19:10:17.749Z,10.94
2022-09-26T19:12:45.419Z,10.96
2022-09-26T19:15:16.530Z,10.97
2022-09-26T19:17:44.319Z,10.89
2022-09-26T19:20:11.920Z,10.79
2022-09-26T19:22:39.643Z,10.86
2022-09-26T19:25:09.492Z,10.81
2022-09-26T19:27:43.672Z,10.80
2022-09-26T19:30:22.164Z,10.86
2022-09-26T19:32:51.448Z,10.75
2022-09-26T19:35:23.923Z,10.72
2022-09-26T19:37:51.916Z,10.70
2022-09-26T19:40:21.368Z,10.65
2022-09-26T19:42:50.461Z,10.54
2022-09-26T19:45:19.620Z,10.57
2022-09-26T19:47:48.807Z,10.56
2022-09-26T19:50:17.746Z,10.62
2022-09-26T19:52:45.999Z,10.60
2022-09-26T19:55:15.987Z,10.49
2022-09-26T19:57:44.462Z,10.50
2022-09-26T20:00:14.625Z,10.47
2022-09-26T20:02:42.506Z,10.45
2022-09-26T20:05:18.097Z,10.51
2022-09-26T20:07:45.738Z,10.46
2022-09-26T20:10:15.922Z,10.43
2022-09-26T20:12:43.671Z,10.47
2022-09-26T20:15:14.049Z,10.37
2022-09-26T20:17:59.613Z,10.39
2022-09-26T20:20:28.060Z,10.40
2022-09-26T20:22:56.454Z,10.50
2022-09-26T20:25:27.151Z,10.46
2022-09-26T20:27:55.525Z,10.46
2022-09-26T20:30:43.373Z,10.47
2022-09-26T20:33:13.115Z,10.40
2022-09-26T20:35:42.871Z,10.44
2022-09-26T20:38:16.064Z,10.42
2022-09-26T20:40:44.739Z,10.49
2022-09-26T20:43:16.233Z,10.39
2022-09-26T20:45:45.303Z,10.40
2022-09-26T20:48:19.490Z,10.46
2022-09-26T20:50:48.402Z,10.45
2022-09-26T20:53:18.276Z,10.49
2022-09-26T20:55:46.167Z,10.39
2022-09-26T20:58:13.886Z,10.48
2022-09-26T21:00:42.174Z,10.50
2022-09-26T21:03:13.425Z,10.45
2022-09-26T21:05:41.230Z,10.55
2022-09-26T21:08:12.115Z,10.55
2022-09-26T21:10:40.035Z,10.49
2022-09-26T21:13:07.711Z,10.33
2022-09-26T21:15:35.361Z,10.40
2022-09-26T21:18:03.252Z,10.35
2022-09-26T21:20:33.582Z,10.30
2022-09-26T21:23:02.234Z,10.37
2022-09-26T21:25:31.727Z,10.25
2022-09-26T21:28:01.549Z,10.31
2022-09-26T21:30:30.313Z,10.25
2022-09-26T21:32:59.455Z,10.49
2022-09-26T21:35:30.103Z,10.26
2022-09-26T21:38:00.177Z,10.20
2022-09-26T21:40:29.601Z,10.30
2022-09-26T21:43:01.718Z,10.27
2022-09-26T21:45:29.438Z,10.39
2022-09-26T21:47:58.163Z,10.31
2022-09-26T21:50:27.470Z,10.30
2022-09-26T21:52:58.028Z,10.20
2022-09-26T21:55:30.919Z,10.27
2022-09-26T21:58:01.194Z,10.31
2022-09-26T22:00:28.840Z,10.27
2022-09-26T22:02:59.240Z,10.31
2022-09-26T22:05:26.989Z,10.31
2022-09-26T22:07:55.823Z,10.26
2022-09-26T22:10:23.515Z,10.22
2022-09-26T22:12:53.251Z,10.26
2022-09-26T22:15:21.118Z,10.29
2022-09-26T22:17:48.808Z,10.13
2022-09-26T22:20:16.714Z,10.14
2022-09-26T22:22:44.415Z,10.07
2022-09-26T22:25:15.125Z,10.22
2022-09-26T22:27:42.841Z,10.07
2022-09-26T22:30:13.834Z,9.98
2022-09-26T22:32:41.497Z,10.02
2022-09-26T22:35:09.519Z,9.90
2022-09-26T22:37:39.249Z,10.12
2022-09-26T22:40:08.300Z,10.09
2022-09-26T22:42:35.992Z,10.15
2022-09-26T22:45:03.716Z,10.17
2022-09-26T22:47:32.789Z,10.12
2022-09-26T22:50:00.513Z,10.04
2022-09-26T22:52:28.156Z,10.16
2022-09-26T22:54:56.236Z,10.10
2022-09-26T22:57:24.535Z,10.08
2022-09-26T22:59:52.269Z,10.06
2022-09-26T23:02:20.034Z,10.04
2022-09-26T23:04:49.160Z,9.98
2022-09-26T23:07:18.448Z,10.11
2022-09-26T23:09:46.799Z,10.08
2022-09-26T23:12:14.479Z,9.98
2022-09-26T23:14:42.368Z,9.92
2022-09-26T23:17:10.190Z,9.88
2022-09-26T23:19:38.112Z,9.99
2022-09-26T23:22:07.246Z,9.98
2022-09-26T23:24:35.035Z,9.93
2022-09-26T23:27:02.753Z,9.93
2022-09-26T23:29:30.415Z,9.93
2022-09-26T23:31:58.956Z,9.88
2022-09-26T23:34:26.639Z,9.97
2022-09-26T23:36:54.375Z,9.89
2022-09-26T23:39:23.671Z,9.92
2022-09-26T23:41:51.537Z,9.89
2022-09-26T23:44:19.300Z,9.95
2022-09-26T23:46:46.999Z,9.88
2022-09-26T23:49:14.814Z,9.82
2022-09-26T23:51:42.638Z,9.82
2022-09-26T23:54:10.981Z,9.85
2022-09-26T23:56:41.638Z,9.82
2022-09-26T23:59:09.524Z,9.83
